TimeAST,TemperatureF,Dew PointF,Humidity,Sea Level PressureIn,VisibilityMPH,Wind Direction,Wind SpeedMPH,Gust SpeedMPH,PrecipitationIn,Events,Conditions,WindDirDegrees,DateUTC
12:55 AM,73.4,64.4,73,29.90,6.2,NW,4.6,-,N/A,,Clear,310,2012-11-02 21:55:00
1:55 AM,72.3,64.0,75,29.90,6.2,NW,4.6,-,N/A,,Partly Cloudy,310,2012-11-02 22:55:00
2:55 AM,71.8,64.2,77,29.91,6.2,WNW,6.9,-,N/A,,Scattered Clouds,300,2012-11-02 23:55:00
3:55 AM,71.2,63.7,77,29.91,6.2,NW,5.8,-,N/A,,Clear,310,2012-11-03 00:55:00
4:55 AM,70.2,63.5,79,29.92,6.2,NW,4.6,-,N/A,,Clear,310,2012-11-03 01:55:00
5:55 AM,70.7,65.1,82,29.94,6.2,WNW,8.1,-,N/A,,Partly Cloudy,300,2012-11-03 02:55:00
6:55 AM,72.7,65.7,79,29.96,6.2,NW,4.6,-,N/A,,Clear,310,2012-11-03 03:55:00
7:55 AM,77.7,66.4,68,29.98,6.2,WNW,6.9,-,N/A,,Clear,300,2012-11-03 04:55:00
8:55 AM,81.3,62.2,52,29.98,6.2,NNW,9.2,-,N/A,,Clear,330,2012-11-03 05:55:00
9:55 AM,84.2,54.9,36,29.96,6.2,NW,6.9,-,N/A,,Clear,320,2012-11-03 06:55:00
10:55 AM,86.0,52.0,31,29.96,6.2,NW,3.5,-,N/A,,Clear,310,2012-11-03 07:55:00
11:55 AM,88.0,54.0,31,29.93,6.2,NW,3.5,-,N/A,,Scattered Clouds,320,2012-11-03 08:55:00
12:55 PM,88.9,54.1,31,29.91,6.2,WNW,5.8,-,N/A,,Scattered Clouds,300,2012-11-03 09:55:00
1:55 PM,88.9,54.1,31,29.90,6.2,North,5.8,-,N/A,,Scattered Clouds,350,2012-11-03 10:55:00
2:55 PM,88.0,55.0,32,29.90,6.2,Calm,Calm,-,N/A,,Mostly Cloudy,0,2012-11-03 11:55:00
3:55 PM,85.8,61.3,44,29.90,6.2,ENE,10.4,-,N/A,,Scattered Clouds,70,2012-11-03 12:55:00
4:55 PM,84.2,63.3,49,29.91,6.2,ENE,8.1,-,N/A,,Partly Cloudy,70,2012-11-03 13:55:00
5:55 PM,82.9,65.5,55,29.93,6.2,Calm,Calm,-,N/A,,Clear,0,2012-11-03 14:55:00
6:55 PM,81.7,59.0,46,29.95,6.2,Calm,Calm,-,N/A,,Clear,0,2012-11-03 15:55:00
7:55 PM,80.2,59.2,48,29.95,6.2,NNW,3.5,-,N/A,,Clear,340,2012-11-03 16:55:00
8:55 PM,80.4,65.1,59,29.96,6.2,North,5.8,-,N/A,,Clear,350,2012-11-03 17:55:00
9:55 PM,77.4,63.7,63,29.96,6.2,NW,4.6,-,N/A,,Clear,320,2012-11-03 18:55:00
10:55 PM,76.8,65.3,67,29.95,6.2,NNW,5.8,-,N/A,,Clear,330,2012-11-03 19:55:00
11:55 PM,77.4,66.2,68,29.95,6.2,North,6.9,-,N/A,,Clear,350,2012-11-03 20:55:00